sensor_id;sensor_type;location;lat;lon;timestamp;P1;durP1;ratioP1;P2;durP2;ratioP2
52322;SDS011;38263;52.920;6.238;2023-06-26T00:01:25;10.82;;;6.63;;
52322;SDS011;38263;52.920;6.238;2023-06-26T00:03:54;9.05;;;7.13;;
52322;SDS011;38263;52.920;6.238;2023-06-26T00:06:20;9.35;;;6.18;;
52322;SDS011;38263;52.920;6.238;2023-06-26T00:08:49;8.38;;;5.95;;
52322;SDS011;38263;52.920;6.238;2023-06-26T00:11:15;7.25;;;6.20;;
52322;SDS011;38263;52.920;6.238;2023-06-26T00:13:41;7.78;;;6.60;;
52322;SDS011;38263;52.920;6.238;2023-06-26T00:16:06;8.85;;;6.72;;
52322;SDS011;38263;52.920;6.238;2023-06-26T00:18:32;8.75;;;7.00;;
52322;SDS011;38263;52.920;6.238;2023-06-26T00:20:58;10.40;;;6.88;;
52322;SDS011;38263;52.920;6.238;2023-06-26T00:23:23;9.90;;;7.82;;
52322;SDS011;38263;52.920;6.238;2023-06-26T00:25:49;8.30;;;7.03;;
52322;SDS011;38263;52.920;6.238;2023-06-26T00:28:14;10.70;;;6.68;;
52322;SDS011;38263;52.920;6.238;2023-06-26T00:30:40;10.13;;;6.78;;
52322;SDS011;38263;52.920;6.238;2023-06-26T00:33:05;8.80;;;6.30;;
52322;SDS011;38263;52.920;6.238;2023-06-26T00:35:31;10.93;;;7.18;;
52322;SDS011;38263;52.920;6.238;2023-06-26T00:37:56;8.73;;;6.75;;
52322;SDS011;38263;52.920;6.238;2023-06-26T00:40:22;9.27;;;7.15;;
52322;SDS011;38263;52.920;6.238;2023-06-26T00:42:48;8.25;;;6.53;;
52322;SDS011;38263;52.920;6.238;2023-06-26T00:45:13;10.38;;;8.00;;
52322;SDS011;38263;52.920;6.238;2023-06-26T00:47:39;9.68;;;7.75;;
52322;SDS011;38263;52.920;6.238;2023-06-26T00:50:05;11.63;;;7.78;;
52322;SDS011;38263;52.920;6.238;2023-06-26T00:52:31;12.40;;;7.82;;
52322;SDS011;38263;52.920;6.238;2023-06-26T00:54:57;9.90;;;7.53;;
52322;SDS011;38263;52.920;6.238;2023-06-26T00:57:23;10.02;;;7.13;;
52322;SDS011;38263;52.920;6.238;2023-06-26T00:59:49;9.48;;;7.68;;
52322;SDS011;38263;52.920;6.238;2023-06-26T01:02:15;10.93;;;6.88;;
52322;SDS011;38263;52.920;6.238;2023-06-26T01:04:46;9.98;;;8.23;;
52322;SDS011;38263;52.920;6.238;2023-06-26T01:07:13;11.38;;;8.68;;
52322;SDS011;38263;52.920;6.238;2023-06-26T01:09:40;9.73;;;7.75;;
52322;SDS011;38263;52.920;6.238;2023-06-26T01:12:06;10.10;;;7.97;;
52322;SDS011;38263;52.920;6.238;2023-06-26T01:14:31;11.00;;;7.95;;
52322;SDS011;38263;52.920;6.238;2023-06-26T01:17:00;8.85;;;7.45;;
52322;SDS011;38263;52.920;6.238;2023-06-26T01:19:27;9.27;;;8.10;;
52322;SDS011;38263;52.920;6.238;2023-06-26T01:21:56;9.60;;;8.00;;
52322;SDS011;38263;52.920;6.238;2023-06-26T01:24:39;10.27;;;8.43;;
52322;SDS011;38263;52.920;6.238;2023-06-26T01:27:13;12.68;;;8.75;;
52322;SDS011;38263;52.920;6.238;2023-06-26T01:29:39;9.73;;;7.88;;
52322;SDS011;38263;52.920;6.238;2023-06-26T01:32:06;10.90;;;8.10;;
52322;SDS011;38263;52.920;6.238;2023-06-26T01:34:32;11.20;;;8.65;;
52322;SDS011;38263;52.920;6.238;2023-06-26T01:36:58;10.50;;;8.57;;
52322;SDS011;38263;52.920;6.238;2023-06-26T01:39:24;10.85;;;9.15;;
52322;SDS011;38263;52.920;6.238;2023-06-26T01:41:49;11.20;;;8.90;;
52322;SDS011;38263;52.920;6.238;2023-06-26T01:44:23;10.38;;;8.82;;
52322;SDS011;38263;52.920;6.238;2023-06-26T01:46:59;12.88;;;8.60;;
52322;SDS011;38263;52.920;6.238;2023-06-26T01:52:36;11.10;;;8.55;;
52322;SDS011;38263;52.920;6.238;2023-06-26T01:57:52;10.43;;;8.27;;
52322;SDS011;38263;52.920;6.238;2023-06-26T02:00:20;12.23;;;8.82;;
52322;SDS011;38263;52.920;6.238;2023-06-26T02:02:48;12.15;;;9.93;;
52322;SDS011;38263;52.920;6.238;2023-06-26T02:05:13;9.75;;;7.85;;
52322;SDS011;38263;52.920;6.238;2023-06-26T02:07:39;9.75;;;8.73;;
52322;SDS011;38263;52.920;6.238;2023-06-26T02:10:05;14.10;;;9.25;;
52322;SDS011;38263;52.920;6.238;2023-06-26T02:12:31;10.05;;;8.18;;
52322;SDS011;38263;52.920;6.238;2023-06-26T02:14:57;10.32;;;8.07;;
52322;SDS011;38263;52.920;6.238;2023-06-26T02:17:23;10.13;;;8.18;;
52322;SDS011;38263;52.920;6.238;2023-06-26T02:19:48;9.90;;;8.35;;
52322;SDS011;38263;52.920;6.238;2023-06-26T02:22:14;10.88;;;8.25;;
52322;SDS011;38263;52.920;6.238;2023-06-26T02:24:40;12.27;;;8.57;;
52322;SDS011;38263;52.920;6.238;2023-06-26T02:27:07;8.77;;;7.50;;
52322;SDS011;38263;52.920;6.238;2023-06-26T02:29:32;12.88;;;8.07;;
52322;SDS011;38263;52.920;6.238;2023-06-26T02:31:58;11.07;;;7.90;;
52322;SDS011;38263;52.920;6.238;2023-06-26T02:34:23;9.82;;;7.85;;
52322;SDS011;38263;52.920;6.238;2023-06-26T02:36:49;11.20;;;7.93;;
52322;SDS011;38263;52.920;6.238;2023-06-26T02:39:15;10.27;;;7.90;;
52322;SDS011;38263;52.920;6.238;2023-06-26T02:41:41;10.48;;;8.18;;
52322;SDS011;38263;52.920;6.238;2023-06-26T02:44:06;9.80;;;7.65;;
52322;SDS011;38263;52.920;6.238;2023-06-26T02:46:32;11.07;;;7.70;;
52322;SDS011;38263;52.920;6.238;2023-06-26T02:48:58;9.63;;;8.27;;
52322;SDS011;38263;52.920;6.238;2023-06-26T02:51:24;10.40;;;8.00;;
52322;SDS011;38263;52.920;6.238;2023-06-26T02:53:49;22.80;;;8.73;;
52322;SDS011;38263;52.920;6.238;2023-06-26T02:56:15;11.85;;;8.75;;
52322;SDS011;38263;52.920;6.238;2023-06-26T02:58:41;11.00;;;8.45;;
52322;SDS011;38263;52.920;6.238;2023-06-26T03:01:06;12.50;;;9.73;;
52322;SDS011;38263;52.920;6.238;2023-06-26T03:03:32;10.23;;;8.32;;
52322;SDS011;38263;52.920;6.238;2023-06-26T03:06:05;10.98;;;9.38;;
52322;SDS011;38263;52.920;6.238;2023-06-26T03:08:36;11.88;;;8.55;;
52322;SDS011;38263;52.920;6.238;2023-06-26T03:11:02;11.95;;;9.25;;
52322;SDS011;38263;52.920;6.238;2023-06-26T03:13:27;9.65;;;7.95;;
52322;SDS011;38263;52.920;6.238;2023-06-26T03:15:53;13.18;;;10.10;;
52322;SDS011;38263;52.920;6.238;2023-06-26T03:18:18;13.32;;;10.00;;
52322;SDS011;38263;52.920;6.238;2023-06-26T03:20:44;10.90;;;9.05;;
52322;SDS011;38263;52.920;6.238;2023-06-26T03:23:10;10.30;;;7.50;;
52322;SDS011;38263;52.920;6.238;2023-06-26T03:25:36;9.70;;;7.60;;
52322;SDS011;38263;52.920;6.238;2023-06-26T03:28:01;8.85;;;7.72;;
52322;SDS011;38263;52.920;6.238;2023-06-26T03:30:27;11.70;;;7.90;;
52322;SDS011;38263;52.920;6.238;2023-06-26T03:32:52;12.40;;;9.05;;
52322;SDS011;38263;52.920;6.238;2023-06-26T03:35:18;11.02;;;8.13;;
52322;SDS011;38263;52.920;6.238;2023-06-26T03:37:44;12.50;;;8.38;;
52322;SDS011;38263;52.920;6.238;2023-06-26T03:40:09;9.35;;;7.00;;
52322;SDS011;38263;52.920;6.238;2023-06-26T03:42:35;10.85;;;7.18;;
52322;SDS011;38263;52.920;6.238;2023-06-26T03:45:00;10.85;;;6.85;;
52322;SDS011;38263;52.920;6.238;2023-06-26T03:47:26;9.02;;;6.57;;
52322;SDS011;38263;52.920;6.238;2023-06-26T03:49:52;10.52;;;7.28;;
52322;SDS011;38263;52.920;6.238;2023-06-26T03:52:17;11.07;;;7.07;;
52322;SDS011;38263;52.920;6.238;2023-06-26T03:54:43;9.77;;;6.50;;
52322;SDS011;38263;52.920;6.238;2023-06-26T03:57:08;9.00;;;6.18;;
52322;SDS011;38263;52.920;6.238;2023-06-26T03:59:34;8.23;;;6.00;;
52322;SDS011;38263;52.920;6.238;2023-06-26T04:02:00;12.90;;;6.70;;
52322;SDS011;38263;52.920;6.238;2023-06-26T04:04:26;12.25;;;6.68;;
52322;SDS011;38263;52.920;6.238;2023-06-26T04:06:52;9.88;;;6.20;;
52322;SDS011;38263;52.920;6.238;2023-06-26T04:09:18;8.23;;;5.38;;
52322;SDS011;38263;52.920;6.238;2023-06-26T04:11:44;9.90;;;6.30;;
52322;SDS011;38263;52.920;6.238;2023-06-26T04:14:10;10.38;;;6.63;;
52322;SDS011;38263;52.920;6.238;2023-06-26T04:16:35;9.02;;;5.78;;
52322;SDS011;38263;52.920;6.238;2023-06-26T04:19:01;12.13;;;6.40;;
52322;SDS011;38263;52.920;6.238;2023-06-26T04:21:27;9.18;;;5.95;;
52322;SDS011;38263;52.920;6.238;2023-06-26T04:23:53;12.50;;;6.20;;
52322;SDS011;38263;52.920;6.238;2023-06-26T04:26:19;10.25;;;6.30;;
52322;SDS011;38263;52.920;6.238;2023-06-26T04:28:44;13.88;;;6.60;;
52322;SDS011;38263;52.920;6.238;2023-06-26T04:31:10;10.38;;;5.43;;
52322;SDS011;38263;52.920;6.238;2023-06-26T04:33:36;13.45;;;5.90;;
52322;SDS011;38263;52.920;6.238;2023-06-26T04:36:05;10.95;;;5.65;;
52322;SDS011;38263;52.920;6.238;2023-06-26T04:38:31;12.30;;;6.25;;
52322;SDS011;38263;52.920;6.238;2023-06-26T04:40:57;12.43;;;6.35;;
52322;SDS011;38263;52.920;6.238;2023-06-26T04:43:23;14.20;;;7.05;;
52322;SDS011;38263;52.920;6.238;2023-06-26T04:45:48;14.70;;;6.43;;
52322;SDS011;38263;52.920;6.238;2023-06-26T04:48:14;14.32;;;7.88;;
52322;SDS011;38263;52.920;6.238;2023-06-26T04:50:40;15.75;;;6.85;;
52322;SDS011;38263;52.920;6.238;2023-06-26T04:53:05;14.52;;;7.72;;
52322;SDS011;38263;52.920;6.238;2023-06-26T04:55:31;16.60;;;7.22;;
52322;SDS011;38263;52.920;6.238;2023-06-26T04:57:56;15.27;;;6.90;;
52322;SDS011;38263;52.920;6.238;2023-06-26T05:00:22;11.32;;;7.25;;
52322;SDS011;38263;52.920;6.238;2023-06-26T05:02:49;15.48;;;7.63;;
52322;SDS011;38263;52.920;6.238;2023-06-26T05:05:24;19.95;;;6.93;;
52322;SDS011;38263;52.920;6.238;2023-06-26T05:07:52;14.77;;;7.53;;
52322;SDS011;38263;52.920;6.238;2023-06-26T05:10:18;13.98;;;6.78;;
52322;SDS011;38263;52.920;6.238;2023-06-26T05:12:44;13.35;;;6.93;;
52322;SDS011;38263;52.920;6.238;2023-06-26T05:15:09;11.13;;;6.20;;
52322;SDS011;38263;52.920;6.238;2023-06-26T05:17:35;14.85;;;6.03;;
52322;SDS011;38263;52.920;6.238;2023-06-26T05:20:00;11.25;;;5.35;;
52322;SDS011;38263;52.920;6.238;2023-06-26T05:22:26;15.27;;;5.93;;
52322;SDS011;38263;52.920;6.238;2023-06-26T05:24:52;15.52;;;5.75;;
52322;SDS011;38263;52.920;6.238;2023-06-26T05:27:20;9.80;;;5.70;;
52322;SDS011;38263;52.920;6.238;2023-06-26T05:29:47;8.88;;;4.03;;
52322;SDS011;38263;52.920;6.238;2023-06-26T05:32:15;8.88;;;3.55;;
52322;SDS011;38263;52.920;6.238;2023-06-26T05:34:42;12.63;;;3.40;;
52322;SDS011;38263;52.920;6.238;2023-06-26T05:37:14;11.98;;;3.28;;
52322;SDS011;38263;52.920;6.238;2023-06-26T05:39:47;7.18;;;2.40;;
52322;SDS011;38263;52.920;6.238;2023-06-26T05:42:13;9.93;;;3.00;;
52322;SDS011;38263;52.920;6.238;2023-06-26T05:44:39;7.38;;;2.50;;
52322;SDS011;38263;52.920;6.238;2023-06-26T05:47:04;7.03;;;2.55;;
52322;SDS011;38263;52.920;6.238;2023-06-26T05:49:30;10.68;;;2.47;;
52322;SDS011;38263;52.920;6.238;2023-06-26T05:51:56;6.93;;;2.63;;
52322;SDS011;38263;52.920;6.238;2023-06-26T05:54:23;10.95;;;2.25;;
52322;SDS011;38263;52.920;6.238;2023-06-26T05:56:50;5.88;;;2.55;;
52322;SDS011;38263;52.920;6.238;2023-06-26T05:59:20;6.22;;;1.95;;
52322;SDS011;38263;52.920;6.238;2023-06-26T06:01:47;10.60;;;2.67;;
52322;SDS011;38263;52.920;6.238;2023-06-26T06:04:13;6.40;;;1.55;;
52322;SDS011;38263;52.920;6.238;2023-06-26T06:06:38;5.75;;;2.10;;
52322;SDS011;38263;52.920;6.238;2023-06-26T06:09:04;8.30;;;2.65;;
52322;SDS011;38263;52.920;6.238;2023-06-26T06:11:30;7.75;;;1.58;;
52322;SDS011;38263;52.920;6.238;2023-06-26T06:13:55;5.80;;;1.77;;
52322;SDS011;38263;52.920;6.238;2023-06-26T06:16:21;9.23;;;2.15;;
52322;SDS011;38263;52.920;6.238;2023-06-26T06:18:46;5.05;;;1.42;;
52322;SDS011;38263;52.920;6.238;2023-06-26T06:21:12;5.03;;;1.48;;
52322;SDS011;38263;52.920;6.238;2023-06-26T06:23:37;6.40;;;1.83;;
52322;SDS011;38263;52.920;6.238;2023-06-26T06:26:03;7.75;;;1.65;;
52322;SDS011;38263;52.920;6.238;2023-06-26T06:28:29;6.13;;;1.08;;
52322;SDS011;38263;52.920;6.238;2023-06-26T06:30:54;6.85;;;1.30;;
52322;SDS011;38263;52.920;6.238;2023-06-26T06:33:20;4.80;;;1.63;;
52322;SDS011;38263;52.920;6.238;2023-06-26T06:35:46;5.70;;;1.45;;
52322;SDS011;38263;52.920;6.238;2023-06-26T06:38:11;4.55;;;1.23;;
52322;SDS011;38263;52.920;6.238;2023-06-26T06:40:37;5.15;;;1.30;;
52322;SDS011;38263;52.920;6.238;2023-06-26T06:43:02;6.97;;;1.27;;
52322;SDS011;38263;52.920;6.238;2023-06-26T06:45:28;7.32;;;1.20;;
52322;SDS011;38263;52.920;6.238;2023-06-26T06:47:54;6.45;;;1.25;;
52322;SDS011;38263;52.920;6.238;2023-06-26T06:50:19;5.07;;;1.02;;
52322;SDS011;38263;52.920;6.238;2023-06-26T06:52:45;4.00;;;1.35;;
52322;SDS011;38263;52.920;6.238;2023-06-26T06:55:11;3.95;;;1.00;;
52322;SDS011;38263;52.920;6.238;2023-06-26T06:57:36;4.95;;;0.88;;
52322;SDS011;38263;52.920;6.238;2023-06-26T07:00:07;8.38;;;1.25;;
52322;SDS011;38263;52.920;6.238;2023-06-26T07:02:34;3.47;;;1.27;;
52322;SDS011;38263;52.920;6.238;2023-06-26T07:05:04;2.38;;;0.95;;
52322;SDS011;38263;52.920;6.238;2023-06-26T07:07:31;5.35;;;0.85;;
52322;SDS011;38263;52.920;6.238;2023-06-26T07:10:02;5.07;;;0.80;;
52322;SDS011;38263;52.920;6.238;2023-06-26T07:12:30;3.38;;;1.13;;
52322;SDS011;38263;52.920;6.238;2023-06-26T07:14:56;6.85;;;1.20;;
52322;SDS011;38263;52.920;6.238;2023-06-26T07:17:22;7.93;;;1.02;;
52322;SDS011;38263;52.920;6.238;2023-06-26T07:19:48;6.38;;;1.52;;
52322;SDS011;38263;52.920;6.238;2023-06-26T07:22:13;8.43;;;1.48;;
52322;SDS011;38263;52.920;6.238;2023-06-26T07:24:39;4.63;;;0.88;;
52322;SDS011;38263;52.920;6.238;2023-06-26T07:27:05;5.22;;;0.80;;
52322;SDS011;38263;52.920;6.238;2023-06-26T07:29:30;5.28;;;1.15;;
52322;SDS011;38263;52.920;6.238;2023-06-26T07:31:56;7.40;;;1.20;;
52322;SDS011;38263;52.920;6.238;2023-06-26T07:34:21;5.43;;;0.90;;
52322;SDS011;38263;52.920;6.238;2023-06-26T07:36:47;7.60;;;1.65;;
52322;SDS011;38263;52.920;6.238;2023-06-26T07:39:12;4.63;;;1.00;;
52322;SDS011;38263;52.920;6.238;2023-06-26T07:41:38;3.38;;;0.70;;
52322;SDS011;38263;52.920;6.238;2023-06-26T07:44:04;6.20;;;0.77;;
52322;SDS011;38263;52.920;6.238;2023-06-26T07:46:29;5.28;;;0.98;;
52322;SDS011;38263;52.920;6.238;2023-06-26T07:48:55;4.38;;;0.90;;
52322;SDS011;38263;52.920;6.238;2023-06-26T07:51:20;4.05;;;0.80;;
52322;SDS011;38263;52.920;6.238;2023-06-26T07:53:46;6.25;;;1.40;;
52322;SDS011;38263;52.920;6.238;2023-06-26T07:56:12;3.05;;;0.90;;
52322;SDS011;38263;52.920;6.238;2023-06-26T07:58:37;2.17;;;0.95;;
52322;SDS011;38263;52.920;6.238;2023-06-26T08:01:03;4.20;;;1.10;;
52322;SDS011;38263;52.920;6.238;2023-06-26T08:03:28;4.35;;;1.10;;
52322;SDS011;38263;52.920;6.238;2023-06-26T08:05:54;3.03;;;1.08;;
52322;SDS011;38263;52.920;6.238;2023-06-26T08:08:19;5.20;;;0.82;;
52322;SDS011;38263;52.920;6.238;2023-06-26T08:10:45;4.40;;;1.00;;
52322;SDS011;38263;52.920;6.238;2023-06-26T08:13:11;7.68;;;1.02;;
52322;SDS011;38263;52.920;6.238;2023-06-26T08:15:36;4.20;;;1.33;;
52322;SDS011;38263;52.920;6.238;2023-06-26T08:18:02;5.47;;;1.17;;
52322;SDS011;38263;52.920;6.238;2023-06-26T08:20:28;8.18;;;1.58;;
52322;SDS011;38263;52.920;6.238;2023-06-26T08:22:53;3.22;;;1.10;;
52322;SDS011;38263;52.920;6.238;2023-06-26T08:25:19;7.93;;;1.95;;
52322;SDS011;38263;52.920;6.238;2023-06-26T08:27:45;4.25;;;1.38;;
52322;SDS011;38263;52.920;6.238;2023-06-26T08:30:11;3.60;;;1.08;;
52322;SDS011;38263;52.920;6.238;2023-06-26T08:32:38;5.63;;;1.00;;
52322;SDS011;38263;52.920;6.238;2023-06-26T08:35:04;7.40;;;1.27;;
52322;SDS011;38263;52.920;6.238;2023-06-26T08:37:31;3.03;;;1.10;;
52322;SDS011;38263;52.920;6.238;2023-06-26T08:39:57;4.72;;;1.02;;
52322;SDS011;38263;52.920;6.238;2023-06-26T08:42:25;6.13;;;1.70;;
52322;SDS011;38263;52.920;6.238;2023-06-26T08:44:51;3.22;;;1.10;;
52322;SDS011;38263;52.920;6.238;2023-06-26T08:47:17;6.38;;;1.40;;
52322;SDS011;38263;52.920;6.238;2023-06-26T08:49:50;5.55;;;1.40;;
52322;SDS011;38263;52.920;6.238;2023-06-26T08:52:24;5.93;;;1.50;;
52322;SDS011;38263;52.920;6.238;2023-06-26T08:57:23;5.47;;;1.45;;
52322;SDS011;38263;52.920;6.238;2023-06-26T08:59:50;9.57;;;1.40;;
52322;SDS011;38263;52.920;6.238;2023-06-26T09:02:16;6.63;;;1.70;;
52322;SDS011;38263;52.920;6.238;2023-06-26T09:04:42;8.90;;;1.83;;
52322;SDS011;38263;52.920;6.238;2023-06-26T09:07:07;5.47;;;2.03;;
52322;SDS011;38263;52.920;6.238;2023-06-26T09:09:33;4.43;;;1.35;;
52322;SDS011;38263;52.920;6.238;2023-06-26T09:11:58;4.63;;;1.50;;
52322;SDS011;38263;52.920;6.238;2023-06-26T09:14:26;5.82;;;1.42;;
52322;SDS011;38263;52.920;6.238;2023-06-26T09:16:52;4.97;;;1.80;;
52322;SDS011;38263;52.920;6.238;2023-06-26T09:19:17;6.55;;;1.90;;
52322;SDS011;38263;52.920;6.238;2023-06-26T09:21:43;4.82;;;1.63;;
52322;SDS011;38263;52.920;6.238;2023-06-26T09:24:09;5.25;;;1.40;;
52322;SDS011;38263;52.920;6.238;2023-06-26T09:26:36;4.55;;;1.50;;
52322;SDS011;38263;52.920;6.238;2023-06-26T09:29:02;4.05;;;1.25;;
52322;SDS011;38263;52.920;6.238;2023-06-26T09:31:29;3.88;;;1.38;;
52322;SDS011;38263;52.920;6.238;2023-06-26T09:33:58;4.82;;;2.22;;
52322;SDS011;38263;52.920;6.238;2023-06-26T09:36:27;4.30;;;1.38;;
52322;SDS011;38263;52.920;6.238;2023-06-26T09:38:54;5.78;;;1.63;;
52322;SDS011;38263;52.920;6.238;2023-06-26T09:41:20;5.38;;;1.15;;
52322;SDS011;38263;52.920;6.238;2023-06-26T09:43:49;7.15;;;1.60;;
52322;SDS011;38263;52.920;6.238;2023-06-26T09:46:16;5.15;;;1.48;;
52322;SDS011;38263;52.920;6.238;2023-06-26T09:51:29;3.80;;;1.58;;
52322;SDS011;38263;52.920;6.238;2023-06-26T09:54:00;9.38;;;1.70;;
52322;SDS011;38263;52.920;6.238;2023-06-26T09:56:26;3.30;;;1.45;;
52322;SDS011;38263;52.920;6.238;2023-06-26T09:58:54;5.70;;;1.67;;
52322;SDS011;38263;52.920;6.238;2023-06-26T10:01:22;3.83;;;1.30;;
52322;SDS011;38263;52.920;6.238;2023-06-26T10:03:51;5.63;;;1.80;;
52322;SDS011;38263;52.920;6.238;2023-06-26T10:06:19;3.90;;;1.38;;
52322;SDS011;38263;52.920;6.238;2023-06-26T10:08:47;4.88;;;1.85;;
52322;SDS011;38263;52.920;6.238;2023-06-26T10:11:14;6.05;;;1.50;;
52322;SDS011;38263;52.920;6.238;2023-06-26T10:13:44;6.25;;;1.88;;
52322;SDS011;38263;52.920;6.238;2023-06-26T10:16:12;5.68;;;1.30;;
52322;SDS011;38263;52.920;6.238;2023-06-26T10:18:42;5.78;;;1.30;;
52322;SDS011;38263;52.920;6.238;2023-06-26T10:21:09;4.45;;;1.58;;
52322;SDS011;38263;52.920;6.238;2023-06-26T10:23:38;6.75;;;1.10;;
52322;SDS011;38263;52.920;6.238;2023-06-26T10:26:06;4.57;;;1.60;;
52322;SDS011;38263;52.920;6.238;2023-06-26T10:28:33;5.75;;;1.25;;
52322;SDS011;38263;52.920;6.238;2023-06-26T10:31:00;6.28;;;1.30;;
52322;SDS011;38263;52.920;6.238;2023-06-26T10:33:27;8.98;;;1.42;;
52322;SDS011;38263;52.920;6.238;2023-06-26T10:35:54;7.10;;;1.48;;
52322;SDS011;38263;52.920;6.238;2023-06-26T10:41:42;10.80;;;2.40;;
52322;SDS011;38263;52.920;6.238;2023-06-26T10:44:08;6.47;;;1.80;;
52322;SDS011;38263;52.920;6.238;2023-06-26T10:46:51;11.10;;;1.30;;
52322;SDS011;38263;52.920;6.238;2023-06-26T10:49:19;9.55;;;1.70;;
52322;SDS011;38263;52.920;6.238;2023-06-26T10:54:19;8.27;;;1.27;;
52322;SDS011;38263;52.920;6.238;2023-06-26T10:56:47;4.32;;;0.98;;
52322;SDS011;38263;52.920;6.238;2023-06-26T10:59:20;8.10;;;1.50;;
52322;SDS011;38263;52.920;6.238;2023-06-26T11:01:53;12.75;;;1.77;;
52322;SDS011;38263;52.920;6.238;2023-06-26T11:08:02;4.10;;;1.30;;
52322;SDS011;38263;52.920;6.238;2023-06-26T11:10:27;7.10;;;1.33;;
52322;SDS011;38263;52.920;6.238;2023-06-26T11:12:53;8.05;;;1.33;;
52322;SDS011;38263;52.920;6.238;2023-06-26T11:15:22;4.57;;;0.75;;
52322;SDS011;38263;52.920;6.238;2023-06-26T11:17:51;5.30;;;0.82;;
52322;SDS011;38263;52.920;6.238;2023-06-26T11:20:17;5.90;;;1.35;;
52322;SDS011;38263;52.920;6.238;2023-06-26T11:22:43;6.28;;;0.90;;
52322;SDS011;38263;52.920;6.238;2023-06-26T11:25:09;7.40;;;1.08;;
52322;SDS011;38263;52.920;6.238;2023-06-26T11:27:42;4.55;;;0.40;;
52322;SDS011;38263;52.920;6.238;2023-06-26T11:30:09;13.40;;;1.23;;
52322;SDS011;38263;52.920;6.238;2023-06-26T11:32:37;14.15;;;1.42;;
52322;SDS011;38263;52.920;6.238;2023-06-26T11:35:03;3.20;;;0.73;;
52322;SDS011;38263;52.920;6.238;2023-06-26T11:37:32;5.13;;;0.90;;
52322;SDS011;38263;52.920;6.238;2023-06-26T11:39:58;7.25;;;0.80;;
52322;SDS011;38263;52.920;6.238;2023-06-26T11:42:24;5.10;;;0.70;;
52322;SDS011;38263;52.920;6.238;2023-06-26T11:44:50;16.48;;;3.35;;
52322;SDS011;38263;52.920;6.238;2023-06-26T11:47:19;7.80;;;1.00;;
52322;SDS011;38263;52.920;6.238;2023-06-26T11:49:49;10.18;;;1.10;;
52322;SDS011;38263;52.920;6.238;2023-06-26T11:52:15;31.85;;;2.13;;
52322;SDS011;38263;52.920;6.238;2023-06-26T11:54:41;7.40;;;0.95;;
52322;SDS011;38263;52.920;6.238;2023-06-26T11:57:07;15.40;;;2.47;;
52322;SDS011;38263;52.920;6.238;2023-06-26T11:59:38;10.02;;;1.10;;
52322;SDS011;38263;52.920;6.238;2023-06-26T12:02:09;6.43;;;1.35;;
52322;SDS011;38263;52.920;6.238;2023-06-26T12:04:36;9.63;;;1.80;;
52322;SDS011;38263;52.920;6.238;2023-06-26T12:07:04;5.82;;;1.00;;
52322;SDS011;38263;52.920;6.238;2023-06-26T12:09:33;4.63;;;0.77;;
52322;SDS011;38263;52.920;6.238;2023-06-26T12:11:59;10.68;;;1.20;;
52322;SDS011;38263;52.920;6.238;2023-06-26T12:14:26;4.55;;;0.95;;
52322;SDS011;38263;52.920;6.238;2023-06-26T12:16:53;4.68;;;0.52;;
52322;SDS011;38263;52.920;6.238;2023-06-26T12:19:23;7.63;;;0.70;;
52322;SDS011;38263;52.920;6.238;2023-06-26T12:21:51;5.18;;;0.70;;
52322;SDS011;38263;52.920;6.238;2023-06-26T12:24:20;3.45;;;0.50;;
52322;SDS011;38263;52.920;6.238;2023-06-26T12:26:51;7.65;;;0.82;;
52322;SDS011;38263;52.920;6.238;2023-06-26T12:29:19;2.30;;;0.70;;
52322;SDS011;38263;52.920;6.238;2023-06-26T12:31:50;8.13;;;1.08;;
52322;SDS011;38263;52.920;6.238;2023-06-26T12:34:18;8.00;;;0.88;;
52322;SDS011;38263;52.920;6.238;2023-06-26T12:36:46;5.13;;;0.77;;
52322;SDS011;38263;52.920;6.238;2023-06-26T12:39:15;4.00;;;0.77;;
52322;SDS011;38263;52.920;6.238;2023-06-26T12:41:57;5.18;;;0.75;;
52322;SDS011;38263;52.920;6.238;2023-06-26T12:44:27;2.60;;;0.50;;
52322;SDS011;38263;52.920;6.238;2023-06-26T12:46:54;4.03;;;0.85;;
52322;SDS011;38263;52.920;6.238;2023-06-26T12:49:30;5.47;;;0.70;;
52322;SDS011;38263;52.920;6.238;2023-06-26T12:51:57;5.18;;;1.23;;
52322;SDS011;38263;52.920;6.238;2023-06-26T12:54:24;5.22;;;1.30;;
52322;SDS011;38263;52.920;6.238;2023-06-26T12:56:50;2.97;;;0.60;;
52322;SDS011;38263;52.920;6.238;2023-06-26T12:59:16;7.30;;;1.45;;
52322;SDS011;38263;52.920;6.238;2023-06-26T13:01:41;5.03;;;1.10;;
52322;SDS011;38263;52.920;6.238;2023-06-26T13:04:07;5.10;;;1.20;;
52322;SDS011;38263;52.920;6.238;2023-06-26T13:06:33;7.25;;;0.90;;
52322;SDS011;38263;52.920;6.238;2023-06-26T13:08:59;4.97;;;0.65;;
52322;SDS011;38263;52.920;6.238;2023-06-26T13:11:24;4.55;;;0.63;;
52322;SDS011;38263;52.920;6.238;2023-06-26T13:13:50;7.82;;;1.17;;
52322;SDS011;38263;52.920;6.238;2023-06-26T13:16:15;3.65;;;0.57;;
52322;SDS011;38263;52.920;6.238;2023-06-26T13:18:41;5.35;;;0.90;;
52322;SDS011;38263;52.920;6.238;2023-06-26T13:21:07;8.60;;;1.00;;
52322;SDS011;38263;52.920;6.238;2023-06-26T13:23:32;10.20;;;1.00;;
52322;SDS011;38263;52.920;6.238;2023-06-26T13:25:58;6.28;;;1.08;;
52322;SDS011;38263;52.920;6.238;2023-06-26T13:28:23;3.55;;;0.82;;
52322;SDS011;38263;52.920;6.238;2023-06-26T13:30:49;5.00;;;0.93;;
52322;SDS011;38263;52.920;6.238;2023-06-26T13:33:14;4.10;;;0.93;;
52322;SDS011;38263;52.920;6.238;2023-06-26T13:35:41;5.75;;;1.02;;
52322;SDS011;38263;52.920;6.238;2023-06-26T13:38:06;5.63;;;0.90;;
52322;SDS011;38263;52.920;6.238;2023-06-26T13:51:35;4.50;;;0.73;;
52322;SDS011;38263;52.920;6.238;2023-06-26T13:54:00;3.63;;;0.70;;
52322;SDS011;38263;52.920;6.238;2023-06-26T13:56:26;7.63;;;0.68;;
52322;SDS011;38263;52.920;6.238;2023-06-26T13:58:55;7.70;;;1.17;;
52322;SDS011;38263;52.920;6.238;2023-06-26T14:01:21;5.10;;;1.00;;
52322;SDS011;38263;52.920;6.238;2023-06-26T14:03:49;4.43;;;0.90;;
52322;SDS011;38263;52.920;6.238;2023-06-26T14:06:14;3.45;;;0.75;;
52322;SDS011;38263;52.920;6.238;2023-06-26T14:08:40;5.97;;;0.90;;
52322;SDS011;38263;52.920;6.238;2023-06-26T14:11:05;9.30;;;1.50;;
52322;SDS011;38263;52.920;6.238;2023-06-26T14:13:31;5.68;;;1.70;;
52322;SDS011;38263;52.920;6.238;2023-06-26T14:15:56;5.20;;;0.90;;
52322;SDS011;38263;52.920;6.238;2023-06-26T14:18:22;4.65;;;0.60;;
52322;SDS011;38263;52.920;6.238;2023-06-26T14:20:48;5.43;;;0.75;;
52322;SDS011;38263;52.920;6.238;2023-06-26T14:23:14;8.98;;;1.38;;
52322;SDS011;38263;52.920;6.238;2023-06-26T14:25:40;3.88;;;0.77;;
52322;SDS011;38263;52.920;6.238;2023-06-26T14:28:05;5.97;;;0.80;;
52322;SDS011;38263;52.920;6.238;2023-06-26T14:30:31;6.70;;;1.05;;
52322;SDS011;38263;52.920;6.238;2023-06-26T14:32:56;4.55;;;0.80;;
52322;SDS011;38263;52.920;6.238;2023-06-26T14:35:22;8.52;;;0.85;;
52322;SDS011;38263;52.920;6.238;2023-06-26T14:37:47;8.43;;;1.67;;
52322;SDS011;38263;52.920;6.238;2023-06-26T14:40:13;8.68;;;1.25;;
52322;SDS011;38263;52.920;6.238;2023-06-26T14:42:39;8.15;;;0.65;;
52322;SDS011;38263;52.920;6.238;2023-06-26T14:45:05;3.30;;;0.57;;
52322;SDS011;38263;52.920;6.238;2023-06-26T14:47:31;5.70;;;0.88;;
52322;SDS011;38263;52.920;6.238;2023-06-26T14:49:56;7.80;;;1.17;;
52322;SDS011;38263;52.920;6.238;2023-06-26T14:52:22;4.28;;;0.60;;
52322;SDS011;38263;52.920;6.238;2023-06-26T14:54:47;4.90;;;0.82;;
52322;SDS011;38263;52.920;6.238;2023-06-26T14:57:13;7.50;;;1.02;;
52322;SDS011;38263;52.920;6.238;2023-06-26T14:59:38;4.18;;;0.70;;
52322;SDS011;38263;52.920;6.238;2023-06-26T15:02:04;6.30;;;0.88;;
52322;SDS011;38263;52.920;6.238;2023-06-26T15:04:31;5.63;;;0.93;;
52322;SDS011;38263;52.920;6.238;2023-06-26T15:06:57;7.25;;;0.98;;
52322;SDS011;38263;52.920;6.238;2023-06-26T15:09:23;5.65;;;0.65;;
52322;SDS011;38263;52.920;6.238;2023-06-26T15:11:48;3.33;;;1.00;;